Time;durP1;ratioP1;P1;durP2;ratioP2;P2;SDS_P1;SDS_P2;PMS_P1;PMS_P2;Temp;Humidity;BMP_temperature;BMP_pressure;BME280_temperature;BME280_humidity;BME280_pressure;Samples;Min_cycle;Max_cycle;Signal;HPM_P1;HPM_P2
2024/01/30 00:03:23;;;;;;;30.70;19.10;;;;;;;-0.27;84.19;102367.90;212789;1277;61377;-74
2024/01/30 00:08:15;;;;;;;32.80;17.80;;;;;;;-0.25;84.34;102361.02;212749;1277;61403;-73
2024/01/30 00:13:13;;;;;;;27.60;14.70;;;;;;;-0.28;83.92;102353.64;212444;1275;61404;-76
2024/01/30 00:18:08;;;;;;;23.90;15.70;;;;;;;-0.30;84.14;102353.24;212503;1275;73227;-74
2024/01/30 00:23:26;;;;;;;28.00;16.40;;;;;;;-0.31;84.15;102342.50;212503;1276;61281;-75
2024/01/30 00:28:45;;;;;;;33.90;17.80;;;;;;;-0.34;83.96;102331.14;212530;1276;66895;-74
2024/01/30 00:33:45;;;;;;;33.30;15.80;;;;;;;-0.34;84.20;102319.90;212344;1275;61664;-75
2024/01/30 00:38:38;;;;;;;27.40;17.30;;;;;;;-0.33;84.41;102320.29;212740;1274;61284;-74
2024/01/30 00:56:18;;;;;;;29.40;15.80;;;;;;;-0.38;84.22;102309.85;210660;1280;68488;-74
2024/01/30 01:01:11;;;;;;;27.30;16.00;;;;;;;-0.41;84.04;102307.73;211937;1280;61310;-74
2024/01/30 01:18:53;;;;;;;29.60;15.70;;;;;;;-0.51;84.22;102305.82;210440;1279;61298;-74
2024/01/30 01:23:46;;;;;;;23.10;16.80;;;;;;;-0.52;84.50;102307.77;211506;1279;61271;-74
2024/01/30 01:28:42;;;;;;;24.80;16.70;;;;;;;-0.56;84.18;102311.90;211703;1278;61565;-74
2024/01/30 01:33:36;;;;;;;31.40;17.30;;;;;;;-0.63;84.33;102311.45;212770;1275;73397;-73
2024/01/30 01:38:29;;;;;;;25.60;15.80;;;;;;;-0.73;84.17;102304.44;212631;1277;139114;-73
2024/01/30 01:43:22;;;;;;;26.80;17.00;;;;;;;-0.81;84.26;102306.30;212661;1276;61316;-73
2024/01/30 01:48:16;;;;;;;31.20;16.30;;;;;;;-0.86;84.38;102302.39;212614;1277;62158;-73
2024/01/30 01:53:09;;;;;;;28.40;17.90;;;;;;;-0.94;84.26;102303.40;212728;1276;61306;-73
2024/01/30 01:58:02;;;;;;;29.10;16.10;;;;;;;-1.00;84.66;102297.29;212768;1276;73563;-73
2024/01/30 02:02:55;;;;;;;27.40;16.30;;;;;;;-1.02;84.54;102291.48;212680;1276;71661;-74
2024/01/30 02:07:48;;;;;;;28.90;16.70;;;;;;;-1.07;84.41;102295.06;212682;1277;61374;-72
2024/01/30 02:12:41;;;;;;;29.90;17.70;;;;;;;-1.11;84.74;102298.50;212652;1279;65608;-73
2024/01/30 02:17:34;;;;;;;24.80;15.80;;;;;;;-1.13;84.86;102293.41;212698;1276;61294;-73
2024/01/30 02:22:27;;;;;;;24.90;16.60;;;;;;;-1.19;84.60;102289.30;212657;1276;61394;-73
2024/01/30 02:27:20;;;;;;;26.00;15.50;;;;;;;-1.22;84.95;102290.59;212642;1276;61316;-73
2024/01/30 02:32:13;;;;;;;27.50;16.10;;;;;;;-1.21;85.08;102285.70;212655;1279;61253;-74
2024/01/30 02:37:05;;;;;;;29.70;18.00;;;;;;;-1.22;85.18;102287.66;212803;1276;61383;-73
2024/01/30 02:41:58;;;;;;;31.60;17.30;;;;;;;-1.24;85.23;102285.13;212890;1276;61516;-73
2024/01/30 02:46:54;;;;;;;33.30;17.70;;;;;;;-1.22;85.65;102280.75;212690;1276;61298;-73
2024/01/30 02:51:46;;;;;;;34.00;19.80;;;;;;;-1.18;85.57;102283.09;212807;1276;71452;-73
2024/01/30 02:56:39;;;;;;;34.00;18.30;;;;;;;-1.18;85.38;102281.23;212687;1276;61295;-73
2024/01/30 03:01:32;;;;;;;31.70;19.30;;;;;;;-1.22;85.36;102278.65;212784;1276;61505;-73
2024/01/30 03:06:25;;;;;;;31.40;17.70;;;;;;;-1.25;85.38;102280.06;212686;1276;61296;-73
2024/01/30 03:11:18;;;;;;;31.30;19.00;;;;;;;-1.29;85.55;102275.14;212648;1277;61270;-73
2024/01/30 03:16:11;;;;;;;35.30;17.90;;;;;;;-1.28;85.46;102275.66;212731;1276;64848;-73
2024/01/30 03:21:04;;;;;;;30.60;18.20;;;;;;;-1.29;85.78;102280.61;212685;1279;61443;-73
2024/01/30 03:25:57;;;;;;;30.60;19.30;;;;;;;-1.26;85.61;102279.02;212715;1276;61473;-73
2024/01/30 03:30:50;;;;;;;30.60;19.40;;;;;;;-1.30;85.47;102280.36;212525;1279;61392;-73
2024/01/30 03:35:42;;;;;;;33.40;18.20;;;;;;;-1.32;85.65;102272.45;212785;1277;61320;-73
2024/01/30 03:40:35;;;;;;;28.80;18.00;;;;;;;-1.32;85.89;102271.79;212697;1276;61239;-73
2024/01/30 03:45:28;;;;;;;28.60;17.60;;;;;;;-1.34;85.85;102271.30;212647;1276;61326;-73
2024/01/30 03:50:20;;;;;;;31.90;18.80;;;;;;;-1.38;85.72;102269.77;212831;1276;61313;-74
2024/01/30 03:55:13;;;;;;;31.00;18.60;;;;;;;-1.39;85.92;102271.36;212674;1275;61304;-73
2024/01/30 04:00:08;;;;;;;34.90;18.90;;;;;;;-1.36;86.03;102270.90;212827;1276;63534;-73
2024/01/30 04:05:05;;;;;;;34.60;19.50;;;;;;;-1.37;86.09;102266.98;212768;1276;71533;-73
2024/01/30 04:09:58;;;;;;;34.10;19.80;;;;;;;-1.36;86.29;102267.36;212678;1276;61300;-73
2024/01/30 04:14:51;;;;;;;27.80;17.00;;;;;;;-1.32;86.31;102270.98;212708;1276;61342;-74
2024/01/30 04:19:43;;;;;;;32.20;19.10;;;;;;;-1.31;86.27;102269.96;212753;1275;61300;-73
2024/01/30 04:24:36;;;;;;;33.80;20.40;;;;;;;-1.33;86.19;102267.30;212761;1276;61460;-74
2024/01/30 04:29:29;;;;;;;35.00;18.80;;;;;;;-1.36;86.21;102275.08;212734;1276;61265;-73
2024/01/30 04:34:22;;;;;;;30.30;18.40;;;;;;;-1.39;86.29;102273.18;212755;1276;61321;-74
2024/01/30 04:39:14;;;;;;;32.30;18.10;;;;;;;-1.42;86.30;102273.65;212713;1275;61298;-73
2024/01/30 04:44:07;;;;;;;33.50;20.10;;;;;;;-1.46;86.14;102269.56;212775;1276;61441;-73
2024/01/30 04:49:00;;;;;;;37.10;20.70;;;;;;;-1.51;86.10;102270.23;212767;1279;61410;-73
2024/01/30 04:53:53;;;;;;;33.70;20.90;;;;;;;-1.58;86.15;102264.73;212676;1276;61423;-73
2024/01/30 04:58:46;;;;;;;38.90;22.50;;;;;;;-1.62;86.09;102265.69;212673;1276;61330;-73
2024/01/30 05:03:39;;;;;;;35.50;19.20;;;;;;;-1.62;86.22;102272.86;212671;1276;61422;-73
2024/01/30 05:08:32;;;;;;;32.50;20.40;;;;;;;-1.61;86.57;102273.13;212752;1276;61845;-73
2024/01/30 05:13:24;;;;;;;32.40;20.90;;;;;;;-1.63;86.41;102268.88;212670;1276;61397;-73
2024/01/30 05:18:17;;;;;;;30.60;19.70;;;;;;;-1.61;86.68;102266.47;212814;1277;63467;-73
2024/01/30 05:23:10;;;;;;;39.80;22.50;;;;;;;-1.61;86.50;102263.92;212779;1276;61377;-73
2024/01/30 05:28:03;;;;;;;34.70;21.20;;;;;;;-1.62;86.50;102265.70;212745;1275;61419;-73
2024/01/30 05:32:56;;;;;;;40.00;22.20;;;;;;;-1.64;86.55;102260.77;212835;1274;61284;-73
2024/01/30 05:37:49;;;;;;;33.90;22.00;;;;;;;-1.65;86.57;102253.89;212916;1276;61248;-73
2024/01/30 05:42:42;;;;;;;40.60;20.70;;;;;;;-1.66;86.41;102255.01;212819;1275;61304;-73
2024/01/30 05:47:36;;;;;;;31.10;19.90;;;;;;;-1.67;86.44;102257.23;212691;1276;61323;-73
2024/01/30 05:52:28;;;;;;;34.10;20.50;;;;;;;-1.70;86.47;102255.78;212634;1276;71663;-74
2024/01/30 05:57:21;;;;;;;34.00;19.80;;;;;;;-1.72;86.41;102256.98;212612;1276;61509;-73
2024/01/30 06:02:15;;;;;;;31.90;21.40;;;;;;;-1.74;86.56;102266.16;212775;1276;61287;-73
2024/01/30 06:07:08;;;;;;;41.90;23.60;;;;;;;-1.75;86.56;102268.84;212720;1276;61256;-73
2024/01/30 06:12:00;;;;;;;32.50;21.90;;;;;;;-1.73;86.76;102267.27;212761;1276;74596;-73
2024/01/30 06:16:53;;;;;;;33.50;22.00;;;;;;;-1.74;86.53;102269.58;212709;1276;61483;-73
2024/01/30 06:21:46;;;;;;;37.90;24.10;;;;;;;-1.73;86.58;102270.48;212872;1276;61278;-73
2024/01/30 06:26:39;;;;;;;36.70;22.20;;;;;;;-1.73;86.56;102269.66;212716;1279;61336;-73
2024/01/30 06:31:32;;;;;;;40.20;24.70;;;;;;;-1.74;86.51;102264.45;212610;1279;61295;-73
2024/01/30 06:36:25;;;;;;;34.50;23.00;;;;;;;-1.73;86.61;102262.38;212865;1276;61297;-73
2024/01/30 06:41:18;;;;;;;36.00;21.10;;;;;;;-1.70;86.59;102260.91;212769;1279;61307;-73
2024/01/30 06:46:11;;;;;;;42.40;23.60;;;;;;;-1.67;86.67;102261.88;212845;1276;61371;-73
2024/01/30 06:51:04;;;;;;;39.40;21.80;;;;;;;-1.62;86.60;102262.84;212708;1276;61935;-73
2024/01/30 06:55:57;;;;;;;38.30;22.90;;;;;;;-1.54;86.71;102258.47;212841;1276;61307;-73
2024/01/30 07:00:50;;;;;;;38.40;22.30;;;;;;;-1.46;86.45;102264.44;212776;1277;61340;-73
2024/01/30 07:05:43;;;;;;;39.30;23.00;;;;;;;-1.39;86.36;102270.53;212745;1276;61296;-72
2024/01/30 07:10:35;;;;;;;37.80;22.90;;;;;;;-1.33;86.07;102274.41;212620;1276;61306;-73
2024/01/30 07:15:28;;;;;;;35.40;21.40;;;;;;;-1.30;85.97;102274.55;212771;1276;64405;-72
2024/01/30 07:20:21;;;;;;;33.50;22.20;;;;;;;-1.20;85.92;102271.69;212741;1275;61339;-73
2024/01/30 07:25:15;;;;;;;36.90;22.30;;;;;;;-1.13;85.87;102275.72;212876;1276;61226;-73
2024/01/30 07:30:08;;;;;;;35.90;23.20;;;;;;;-1.04;85.59;102274.44;212423;1279;61447;-73
2024/01/30 07:35:01;;;;;;;38.30;20.50;;;;;;;-0.98;85.83;102268.54;212469;1277;61373;-73
2024/01/30 07:40:00;;;;;;;41.60;24.30;;;;;;;-0.93;85.62;102267.21;212435;1279;66080;-73
2024/01/30 07:44:53;;;;;;;34.30;20.70;;;;;;;-0.86;85.76;102267.40;212421;1277;61339;-73
2024/01/30 07:49:46;;;;;;;31.90;20.60;;;;;;;-0.73;85.54;102268.69;212407;1277;61375;-73
2024/01/30 07:54:39;;;;;;;34.40;19.50;;;;;;;-0.54;85.62;102264.90;212427;1281;61349;-75
2024/01/30 07:59:32;;;;;;;38.40;21.50;;;;;;;-0.39;84.94;102268.33;212461;1277;61303;-72
2024/01/30 08:04:25;;;;;;;36.90;20.00;;;;;;;-0.24;84.92;102265.05;212374;1277;61356;-72
2024/01/30 08:09:17;;;;;;;37.90;21.60;;;;;;;-0.10;84.60;102265.02;212386;1276;61435;-72
2024/01/30 08:14:10;;;;;;;31.90;19.50;;;;;;;0.03;84.47;102263.20;212312;1277;61298;-71
2024/01/30 08:19:03;;;;;;;29.30;18.30;;;;;;;0.18;84.04;102261.77;212211;1277;61958;-72
2024/01/30 08:23:56;;;;;;;33.80;20.60;;;;;;;0.32;83.97;102257.95;212273;1276;61434;-72
2024/01/30 08:28:50;;;;;;;30.70;19.10;;;;;;;0.43;83.73;102253.73;212401;1277;61470;-72
2024/01/30 08:33:43;;;;;;;30.60;19.30;;;;;;;0.58;83.48;102244.56;212647;1276;61288;-72
2024/01/30 08:38:37;;;;;;;30.80;18.60;;;;;;;0.72;83.19;102241.08;212733;1276;72588;-72
2024/01/30 08:43:30;;;;;;;30.40;20.00;;;;;;;0.88;83.05;102241.17;212717;1276;61412;-72
2024/01/30 08:48:22;;;;;;;29.20;18.50;;;;;;;0.98;82.90;102241.61;212646;1276;61294;-72
2024/01/30 08:53:15;;;;;;;27.20;18.10;;;;;;;1.05;82.35;102243.86;212717;1275;61365;-71
2024/01/30 08:58:08;;;;;;;31.90;19.00;;;;;;;1.23;82.43;102244.27;212740;1275;61319;-71
2024/01/30 09:03:01;;;;;;;34.20;20.80;;;;;;;1.37;82.01;102235.51;212767;1275;61803;-70
2024/01/30 09:07:54;;;;;;;26.90;18.50;;;;;;;1.43;81.53;102240.77;212758;1276;61390;-70
2024/01/30 09:12:48;;;;;;;32.30;19.60;;;;;;;1.55;81.18;102239.98;212782;1276;61720;-71
2024/01/30 09:17:40;;;;;;;25.10;16.70;;;;;;;2.45;80.67;102236.31;212816;1277;61949;-70
2024/01/30 09:22:33;;;;;;;30.50;19.10;;;;;;;3.36;79.14;102232.79;212790;1275;61304;-71
2024/01/30 09:27:26;;;;;;;29.30;19.00;;;;;;;3.25;78.64;102229.11;212819;1276;61378;-70
2024/01/30 09:32:19;;;;;;;31.00;18.60;;;;;;;3.12;78.67;102230.71;212800;1275;61307;-71
2024/01/30 09:37:12;;;;;;;28.30;17.90;;;;;;;2.97;78.90;102226.95;212721;1276;61381;-71
2024/01/30 09:42:37;;;;;;;27.30;17.90;;;;;;;2.85;78.94;102224.84;212724;1276;61371;-70
2024/01/30 09:47:42;;;;;;;25.40;17.70;;;;;;;2.85;78.55;102223.33;212614;1276;61417;-70
2024/01/30 09:52:35;;;;;;;27.80;17.60;;;;;;;2.92;78.44;102217.32;212927;1276;74407;-70
2024/01/30 09:57:28;;;;;;;30.60;18.50;;;;;;;3.00;78.06;102209.83;212518;1275;71594;-72
2024/01/30 10:02:23;;;;;;;28.90;18.50;;;;;;;3.23;77.87;102205.83;212379;1276;61358;-70
2024/01/30 10:07:16;;;;;;;26.70;17.40;;;;;;;3.44;77.22;102202.50;212561;1276;67312;-71
2024/01/30 10:12:10;;;;;;;26.40;16.30;;;;;;;3.94;76.50;102194.07;212560;1275;61322;-70
2024/01/30 10:17:03;;;;;;;25.80;16.50;;;;;;;4.91;74.73;102189.16;212597;1275;74452;-71
2024/01/30 10:22:10;;;;;;;23.50;15.40;;;;;;;5.02;74.61;102186.14;212516;1276;71142;-72
2024/01/30 10:27:03;;;;;;;23.10;16.90;;;;;;;5.17;74.29;102184.98;212503;1279;61229;-74
2024/01/30 10:32:03;;;;;;;25.20;17.20;;;;;;;6.22;72.32;102171.11;212376;1276;61842;-72
2024/01/30 10:37:07;;;;;;;23.30;16.40;;;;;;;7.46;71.25;102159.89;212454;1275;61287;-73
2024/01/30 10:42:06;;;;;;;27.70;16.10;;;;;;;8.71;69.05;102148.02;212299;1276;73882;-73
2024/01/30 10:47:04;;;;;;;22.40;17.10;;;;;;;9.57;68.00;102142.55;212418;1277;72572;-74
2024/01/30 10:51:58;;;;;;;21.60;15.80;;;;;;;11.03;66.06;102134.66;212396;1278;61454;-70
2024/01/30 10:56:52;;;;;;;21.60;16.50;;;;;;;12.68;62.89;102125.71;212501;1276;65722;-71
2024/01/30 11:01:45;;;;;;;18.60;15.40;;;;;;;13.76;61.47;102115.61;212406;1277;61383;-71
2024/01/30 11:06:43;;;;;;;18.40;14.50;;;;;;;14.73;60.56;102107.30;212434;1276;74924;-71
2024/01/30 11:11:53;;;;;;;17.90;15.00;;;;;;;15.45;59.22;102101.83;212465;1279;74452;-71
2024/01/30 11:16:48;;;;;;;18.00;15.90;;;;;;;16.12;58.15;102093.92;212522;1279;61377;-71
2024/01/30 11:21:43;;;;;;;18.90;15.70;;;;;;;16.25;57.09;102090.63;212327;1276;67082;-71
2024/01/30 11:26:37;;;;;;;19.70;15.70;;;;;;;16.61;56.08;102084.33;212370;1276;61221;-72
2024/01/30 11:31:29;;;;;;;18.00;14.80;;;;;;;16.59;55.06;102075.71;212476;1276;61292;-71
2024/01/30 11:36:26;;;;;;;16.90;13.90;;;;;;;17.04;54.64;102076.31;212393;1279;62127;-71
2024/01/30 11:41:19;;;;;;;;;;;;;;;17.63;53.67;102070.63;212638;1277;61298;-71
2024/01/30 11:46:12;;;;;;;16.20;14.00;;;;;;;17.81;51.80;102066.07;212719;1277;61938;-70
2024/01/30 11:51:05;;;;;;;20.80;15.70;;;;;;;17.80;51.50;102064.48;212695;1277;61371;-71
2024/01/30 11:55:58;;;;;;;17.30;14.60;;;;;;;17.87;50.62;102058.23;212710;1276;61556;-71
2024/01/30 12:00:58;;;;;;;21.80;14.60;;;;;;;17.30;50.19;102054.36;212716;1276;61429;-71
2024/01/30 12:05:59;;;;;;;17.00;14.70;;;;;;;16.42;49.65;102052.91;212595;1276;61755;-70
2024/01/30 12:11:01;;;;;;;18.40;14.70;;;;;;;15.32;49.67;102055.60;212704;1276;67234;-72
2024/01/30 12:15:54;;;;;;;17.90;14.10;;;;;;;14.05;50.96;102055.86;212803;1276;61300;-72
2024/01/30 12:20:46;;;;;;;21.10;14.20;;;;;;;13.75;51.83;102053.73;212616;1276;61296;-70
2024/01/30 12:25:39;;;;;;;18.60;13.30;;;;;;;13.06;53.21;102050.30;212724;1276;61400;-70
2024/01/30 12:30:32;;;;;;;18.50;13.30;;;;;;;12.16;53.84;102052.48;212761;1279;61358;-72
2024/01/30 12:35:25;;;;;;;18.30;12.60;;;;;;;11.33;54.46;102049.35;212745;1276;61416;-72
2024/01/30 12:40:20;;;;;;;19.00;13.10;;;;;;;10.64;54.99;102051.34;212739;1277;61312;-71
2024/01/30 12:45:14;;;;;;;19.20;13.00;;;;;;;10.23;55.98;102050.77;212878;1276;74473;-71
2024/01/30 12:50:07;;;;;;;17.70;12.60;;;;;;;9.82;55.35;102047.74;212774;1277;72965;-72
2024/01/30 12:55:00;;;;;;;20.10;12.90;;;;;;;9.55;56.45;102042.27;212586;1277;61396;-72
2024/01/30 12:59:53;;;;;;;20.90;12.90;;;;;;;9.33;57.16;102043.61;212613;1276;61341;-70
2024/01/30 13:04:46;;;;;;;18.70;13.40;;;;;;;9.18;57.67;102043.66;212780;1277;61713;-70
2024/01/30 13:09:41;;;;;;;21.20;13.30;;;;;;;8.92;57.42;102037.65;212804;1277;74651;-70
2024/01/30 13:14:34;;;;;;;18.70;12.80;;;;;;;8.55;57.63;102033.23;212871;1277;61333;-72
2024/01/30 13:19:27;;;;;;;17.60;12.90;;;;;;;8.29;58.28;102032.68;212758;1275;61324;-70
2024/01/30 13:24:21;;;;;;;17.00;11.10;;;;;;;7.97;57.65;102035.10;212672;1277;61373;-72
2024/01/30 13:29:14;;;;;;;15.90;12.00;;;;;;;7.77;58.37;102031.86;212691;1277;61278;-72
2024/01/30 13:34:07;;;;;;;18.00;11.20;;;;;;;7.57;58.39;102033.85;212653;1275;161784;-71
2024/01/30 13:39:00;;;;;;;17.40;12.00;;;;;;;7.43;58.70;102032.98;212735;1279;71325;-72
2024/01/30 13:43:53;;;;;;;15.90;11.50;;;;;;;7.27;59.01;102032.64;212678;1279;61300;-71
2024/01/30 13:48:46;;;;;;;16.50;11.60;;;;;;;7.11;59.36;102034.23;212763;1279;61419;-71
2024/01/30 13:53:40;;;;;;;19.20;11.40;;;;;;;6.90;59.86;102034.86;212762;1276;61380;-71
2024/01/30 13:58:34;;;;;;;13.60;9.60;;;;;;;6.72;60.20;102039.09;212801;1276;75230;-71
2024/01/30 14:03:27;;;;;;;16.10;9.60;;;;;;;6.55;60.87;102039.39;212730;1277;71463;-72
2024/01/30 14:08:21;;;;;;;19.80;10.80;;;;;;;6.40;60.79;102036.46;212674;1277;61390;-71
2024/01/30 14:13:14;;;;;;;15.90;10.80;;;;;;;6.32;60.80;102032.30;212699;1275;65976;-71
2024/01/30 14:18:08;;;;;;;14.00;9.90;;;;;;;6.25;60.87;102025.86;212662;1277;61288;-71
2024/01/30 14:23:01;;;;;;;17.00;9.90;;;;;;;6.11;61.47;102024.56;212690;1279;74709;-71
2024/01/30 14:27:54;;;;;;;17.70;10.60;;;;;;;5.91;61.83;102018.27;212723;1277;61304;-72
2024/01/30 14:32:47;;;;;;;16.00;10.00;;;;;;;5.69;62.55;102017.35;212721;1276;61293;-71
2024/01/30 14:37:40;;;;;;;16.00;11.20;;;;;;;5.48;62.84;102015.98;212706;1275;65920;-71
2024/01/30 14:42:33;;;;;;;17.30;9.80;;;;;;;5.27;63.37;102015.77;212702;1277;61354;-71
2024/01/30 14:47:26;;;;;;;14.30;10.10;;;;;;;5.08;63.92;102018.05;212668;1277;61387;-72
2024/01/30 14:52:19;;;;;;;13.20;9.30;;;;;;;4.89;64.29;102017.09;212643;1276;71584;-73
2024/01/30 14:57:14;;;;;;;15.80;9.50;;;;;;;4.64;64.89;102020.20;212741;1277;61294;-73
2024/01/30 15:02:07;;;;;;;17.20;9.30;;;;;;;4.38;65.62;102021.52;212754;1279;65888;-72
2024/01/30 15:06:59;;;;;;;12.00;8.00;;;;;;;4.15;66.38;102023.14;212729;1276;61349;-72
2024/01/30 15:11:53;;;;;;;15.10;8.40;;;;;;;3.93;67.10;102015.38;212723;1275;61335;-72
2024/01/30 15:16:46;;;;;;;15.40;8.60;;;;;;;3.72;67.87;102010.97;212676;1279;72911;-72
2024/01/30 15:21:39;;;;;;;13.40;8.30;;;;;;;3.51;68.42;102010.76;212751;1276;61300;-72
2024/01/30 15:26:31;;;;;;;12.70;8.00;;;;;;;3.30;68.48;102015.70;212723;1277;61358;-72
2024/01/30 15:31:24;;;;;;;17.30;9.30;;;;;;;3.09;68.77;102015.88;212662;1276;61284;-73
2024/01/30 15:36:17;;;;;;;13.70;9.50;;;;;;;2.90;68.72;102016.60;212565;1277;61307;-70
2024/01/30 15:41:11;;;;;;;14.00;8.60;;;;;;;2.75;69.22;102015.41;212666;1279;61774;-71
2024/01/30 15:46:04;;;;;;;14.50;8.90;;;;;;;2.61;69.65;102014.79;212651;1276;61306;-70
2024/01/30 15:50:57;;;;;;;11.80;8.50;;;;;;;2.48;70.16;102014.21;212668;1277;65878;-70
2024/01/30 15:55:50;;;;;;;12.30;8.10;;;;;;;2.36;70.28;102011.45;212644;1279;61425;-70
2024/01/30 16:00:42;;;;;;;14.00;8.50;;;;;;;2.26;70.85;102013.05;212700;1276;61352;-70
2024/01/30 16:05:35;;;;;;;16.70;9.90;;;;;;;2.20;70.97;102009.14;212601;1276;61451;-70
2024/01/30 16:10:28;;;;;;;17.70;9.50;;;;;;;2.10;70.94;102007.60;212541;1277;61303;-70
2024/01/30 16:15:22;;;;;;;15.40;9.60;;;;;;;2.02;71.26;102008.73;212571;1276;61285;-70
2024/01/30 16:20:15;;;;;;;16.70;9.40;;;;;;;1.94;71.40;102006.73;212379;1275;61339;-70
2024/01/30 16:25:08;;;;;;;16.90;10.70;;;;;;;1.85;71.41;102001.69;212395;1277;73436;-70
2024/01/30 16:30:05;;;;;;;12.80;8.60;;;;;;;1.77;71.46;101997.69;212277;1277;61286;-71
2024/01/30 16:34:59;;;;;;;13.20;8.80;;;;;;;1.70;72.07;101992.39;212095;1276;61259;-71
2024/01/30 16:39:52;;;;;;;14.00;9.60;;;;;;;1.62;71.87;101990.42;212574;1276;64985;-71
2024/01/30 16:44:45;;;;;;;18.50;10.90;;;;;;;1.49;71.98;101987.95;212248;1279;61281;-71
2024/01/30 16:49:38;;;;;;;16.00;9.90;;;;;;;1.39;72.27;101989.81;212010;1276;61183;-71
2024/01/30 16:54:31;;;;;;;15.00;13.70;;;;;;;1.29;72.18;101996.54;212535;1276;61368;-70
2024/01/30 16:59:24;;;;;;;14.90;9.00;;;;;;;1.19;72.55;101996.29;212373;1276;61304;-73
2024/01/30 17:04:20;;;;;;;15.70;10.40;;;;;;;1.09;72.82;101992.38;212363;1279;61426;-72
2024/01/30 17:09:14;;;;;;;13.80;9.30;;;;;;;1.00;72.80;101992.14;212492;1277;61367;-73
2024/01/30 17:14:11;;;;;;;15.00;9.20;;;;;;;0.91;73.04;101992.79;212415;1279;73143;-71
2024/01/30 17:19:07;;;;;;;17.80;9.30;;;;;;;0.81;72.99;101990.87;212312;1277;72208;-77
2024/01/30 17:24:26;;;;;;;13.60;9.60;;;;;;;0.74;73.41;101983.90;212363;1276;61196;-75
2024/01/30 17:29:33;;;;;;;18.20;10.40;;;;;;;0.66;73.66;101979.50;212342;1276;66079;-70
2024/01/30 17:34:28;;;;;;;13.40;8.80;;;;;;;0.59;73.81;101977.56;212533;1279;61302;-70
2024/01/30 17:39:21;;;;;;;18.20;10.00;;;;;;;0.51;73.92;101972.85;212512;1276;74938;-70
2024/01/30 17:44:14;;;;;;;17.10;9.70;;;;;;;0.44;73.92;101969.43;212477;1276;64661;-70
2024/01/30 17:49:07;;;;;;;17.00;10.20;;;;;;;0.37;74.03;101971.48;212410;1276;61271;-70
2024/01/30 17:54:00;;;;;;;21.40;11.70;;;;;;;0.31;74.26;101970.79;212386;1276;65548;-70
2024/01/30 17:58:53;;;;;;;17.40;11.10;;;;;;;0.25;74.28;101969.83;212416;1277;61316;-72
2024/01/30 18:03:47;;;;;;;17.10;9.80;;;;;;;0.22;74.63;101965.16;212495;1278;61313;-72
2024/01/30 18:08:52;;;;;;;18.30;11.20;;;;;;;0.19;74.73;101966.49;212487;1277;72722;-75
2024/01/30 18:13:44;;;;;;;18.40;11.20;;;;;;;0.15;74.67;101964.46;212131;1279;61348;-71
2024/01/30 18:18:37;;;;;;;17.20;12.00;;;;;;;0.10;75.04;101964.04;212478;1276;61365;-72
2024/01/30 18:23:30;;;;;;;18.20;10.80;;;;;;;0.05;75.32;101964.18;212556;1277;61326;-72
2024/01/30 18:28:23;;;;;;;26.20;14.40;;;;;;;-0.03;75.14;101961.89;212464;1277;61326;-72
2024/01/30 18:33:16;;;;;;;22.40;13.30;;;;;;;-0.09;75.60;101958.68;212361;1279;61313;-72
2024/01/30 18:38:09;;;;;;;28.70;16.60;;;;;;;-0.16;75.56;101955.90;212491;1279;61506;-72
2024/01/30 18:43:04;;;;;;;26.60;14.80;;;;;;;-0.22;75.69;101961.64;212642;1276;61317;-72
2024/01/30 18:47:57;;;;;;;22.50;15.20;;;;;;;-0.31;75.44;101964.36;212482;1277;61281;-72
2024/01/30 18:52:52;;;;;;;28.90;17.40;;;;;;;-0.38;75.65;101965.49;212484;1276;61290;-71
2024/01/30 18:57:45;;;;;;;26.80;15.40;;;;;;;-0.44;75.65;101968.30;212555;1276;71344;-72
2024/01/30 19:02:37;;;;;;;29.80;17.80;;;;;;;-0.49;75.93;101967.90;212274;1276;61317;-71
2024/01/30 19:07:30;;;;;;;28.70;17.70;;;;;;;-0.52;76.13;101966.42;212283;1276;61414;-71
2024/01/30 19:12:23;;;;;;;31.50;18.20;;;;;;;-0.55;75.96;101961.77;211857;1276;61322;-72
2024/01/30 19:17:16;;;;;;;31.00;19.00;;;;;;;-0.62;75.88;101960.15;212076;1277;61477;-71
2024/01/30 19:22:11;;;;;;;36.10;19.70;;;;;;;-0.69;76.04;101959.05;212090;1279;73784;-72
2024/01/30 19:27:04;;;;;;;28.40;18.00;;;;;;;-0.71;76.32;101956.13;212249;1275;61336;-72
2024/01/30 19:31:57;;;;;;;37.20;19.20;;;;;;;-0.74;76.54;101947.05;212308;1276;62949;-74
2024/01/30 19:36:50;;;;;;;34.50;21.10;;;;;;;-0.77;76.70;101950.75;212290;1277;61835;-72
2024/01/30 19:41:43;;;;;;;38.50;22.10;;;;;;;-0.80;76.68;101950.71;212534;1276;61325;-72
2024/01/30 19:46:38;;;;;;;35.40;21.10;;;;;;;-0.82;76.83;101951.24;212403;1276;71257;-72
2024/01/30 19:51:30;;;;;;;36.00;20.60;;;;;;;-0.86;76.76;101948.36;212538;1276;61635;-72
2024/01/30 19:56:23;;;;;;;35.40;22.10;;;;;;;-0.89;76.91;101947.22;212408;1277;61413;-71
2024/01/30 20:01:17;;;;;;;34.70;23.60;;;;;;;-0.91;76.94;101944.70;212422;1277;61313;-72
2024/01/30 20:06:10;;;;;;;38.40;22.00;;;;;;;-0.90;77.31;101937.79;212617;1277;73870;-72
2024/01/30 20:11:03;;;;;;;36.00;21.20;;;;;;;-0.88;77.28;101933.90;212505;1274;61252;-72
2024/01/30 20:15:58;;;;;;;37.20;21.80;;;;;;;-0.88;77.27;101929.78;212493;1276;61419;-72
2024/01/30 20:20:50;;;;;;;35.10;21.90;;;;;;;-0.89;77.18;101928.86;212551;1277;66925;-72
2024/01/30 20:25:43;;;;;;;37.30;20.70;;;;;;;-0.93;77.25;101929.70;212562;1279;61429;-72
2024/01/30 20:36:47;;;;;;;35.70;20.50;;;;;;;-1.01;77.61;101927.36;211766;1280;72266;-72
2024/01/30 20:41:40;;;;;;;34.00;20.70;;;;;;;-1.01;77.67;101924.58;211694;1282;61262;-71
2024/01/30 20:46:33;;;;;;;39.60;21.30;;;;;;;-1.00;77.79;101922.30;211758;1280;61478;-71
2024/01/30 20:51:26;;;;;;;33.50;22.10;;;;;;;-1.00;77.89;101926.22;211854;1279;69627;-72
2024/01/30 20:56:19;;;;;;;41.80;23.00;;;;;;;-1.01;78.01;101918.16;211993;1281;61559;-71
2024/01/30 21:01:11;;;;;;;31.90;19.30;;;;;;;-1.00;78.13;101917.35;211843;1280;61400;-71
2024/01/30 21:06:04;;;;;;;34.50;20.20;;;;;;;-0.99;78.18;101908.45;212253;1276;61409;-71
2024/01/30 21:10:59;;;;;;;37.20;20.10;;;;;;;-0.94;78.31;101905.61;212651;1276;61256;-71
2024/01/30 21:15:52;;;;;;;32.90;19.60;;;;;;;-0.92;78.39;101906.33;212645;1276;61422;-70
2024/01/30 21:20:46;;;;;;;33.90;21.70;;;;;;;-0.89;78.50;101905.71;212659;1279;72343;-71
2024/01/30 21:25:43;;;;;;;36.20;21.00;;;;;;;-0.85;78.59;101901.58;212647;1276;70740;-70
2024/01/30 21:30:36;;;;;;;36.60;21.60;;;;;;;-0.82;78.56;101897.91;212571;1276;61319;-72
2024/01/30 21:35:29;;;;;;;38.30;20.50;;;;;;;-0.79;78.77;101894.42;212781;1276;61327;-70
2024/01/30 21:40:22;;;;;;;35.00;20.30;;;;;;;-0.77;78.72;101897.67;212207;1275;62884;-71
2024/01/30 21:45:15;;;;;;;37.10;22.80;;;;;;;-0.77;78.68;101894.25;212577;1277;61854;-71
2024/01/30 21:50:08;;;;;;;35.00;21.40;;;;;;;-0.75;78.87;101903.90;212690;1276;61321;-73
2024/01/30 21:55:19;;;;;;;36.00;20.20;;;;;;;-0.76;78.82;101907.24;212581;1279;61348;-74
2024/01/30 22:00:12;;;;;;;36.00;22.20;;;;;;;-0.76;79.01;101906.71;212728;1279;65079;-72
2024/01/30 22:05:06;;;;;;;43.90;24.10;;;;;;;-0.78;79.01;101909.48;212775;1276;61351;-72
2024/01/30 22:09:58;;;;;;;39.70;23.10;;;;;;;-0.81;78.81;101912.17;212816;1276;74742;-72
2024/01/30 22:14:52;;;;;;;37.40;23.30;;;;;;;-0.83;78.99;101919.26;212705;1276;71305;-71
2024/01/30 22:19:45;;;;;;;36.20;21.00;;;;;;;-0.85;79.12;101920.14;212721;1275;61375;-71
2024/01/30 22:24:37;;;;;;;42.00;22.30;;;;;;;-0.84;79.33;101920.53;212592;1276;61359;-72
2024/01/30 22:29:30;;;;;;;37.50;23.20;;;;;;;-0.85;79.30;101913.39;212648;1276;61575;-71
2024/01/30 22:34:23;;;;;;;40.90;22.00;;;;;;;-0.87;79.44;101912.62;212645;1276;61372;-71
2024/01/30 22:39:16;;;;;;;42.20;24.30;;;;;;;-0.91;79.17;101909.61;212655;1276;61298;-71